Time;durP1;ratioP1;P1;durP2;ratioP2;P2;SDS_P1;SDS_P2;PMS_P1;PMS_P2;Temp;Humidity;BMP_temperature;BMP_pressure;BME280_temperature;BME280_humidity;BME280_pressure;Samples;Min_cycle;Max_cycle;Signal;HPM_P1;HPM_P2
2022/04/20 00:01:30;;;;;;;7.40;4.10;;;9.20;57.40;;;;;;5015381;28;20880;-69
2022/04/20 00:03:59;;;;;;;12.43;4.40;;;9.10;57.40;;;;;;5017875;28;20503;-69
2022/04/20 00:06:27;;;;;;;10.33;4.60;;;9.00;57.70;;;;;;5017707;28;20474;-69
2022/04/20 00:08:56;;;;;;;8.50;4.93;;;8.90;57.70;;;;;;5014150;28;20495;-69
2022/04/20 00:11:24;;;;;;;18.80;7.87;;;8.80;57.70;;;;;;5019141;28;20461;-69
2022/04/20 00:13:52;;;;;;;31.97;12.07;;;8.80;58.00;;;;;;5016122;28;20491;-69
2022/04/20 00:16:20;;;;;;;16.60;8.13;;;8.80;58.10;;;;;;5016068;28;20519;-69
2022/04/20 00:18:48;;;;;;;8.87;4.60;;;8.80;58.10;;;;;;5016162;28;20460;-69
2022/04/20 00:21:17;;;;;;;8.83;4.57;;;8.70;58.20;;;;;;5018223;28;20467;-69
2022/04/20 00:23:45;;;;;;;7.47;4.83;;;8.70;58.10;;;;;;5018513;28;20479;-69
2022/04/20 00:26:13;;;;;;;8.20;5.60;;;8.60;58.30;;;;;;5018544;28;20541;-69
2022/04/20 00:28:42;;;;;;;10.67;6.07;;;8.60;58.40;;;;;;5016655;28;20543;-69
2022/04/20 00:31:10;;;;;;;12.37;5.67;;;8.60;58.60;;;;;;5021506;28;20487;-69
2022/04/20 00:33:38;;;;;;;13.33;7.50;;;8.60;58.50;;;;;;5021831;28;20498;-68
2022/04/20 00:36:06;;;;;;;29.83;15.10;;;8.60;58.70;;;;;;5020048;28;20471;-68
2022/04/20 00:38:35;;;;;;;23.17;13.03;;;8.70;58.70;;;;;;5020838;28;20456;-69
2022/04/20 00:41:03;;;;;;;12.53;5.70;;;8.70;58.70;;;;;;5017225;28;20470;-69
2022/04/20 00:43:32;;;;;;;10.50;5.23;;;8.60;58.80;;;;;;5019413;28;20862;-69
2022/04/20 00:46:01;;;;;;;16.05;5.78;;;8.60;58.80;;;;;;5019303;28;20473;-69
2022/04/20 00:48:30;;;;;;;9.65;5.47;;;8.50;58.90;;;;;;5017589;28;20194;-69
2022/04/20 00:50:58;;;;;;;9.40;5.00;;;8.50;58.90;;;;;;5018930;28;20210;-68
2022/04/20 00:53:26;;;;;;;7.37;4.00;;;8.40;59.20;;;;;;5034590;28;20882;-69
2022/04/20 00:55:57;;;;;;;12.38;6.25;;;8.40;59.10;;;;;;5016383;28;20468;-68
2022/04/20 00:58:26;;;;;;;14.15;5.82;;;8.40;59.40;;;;;;5012388;28;20285;-67
2022/04/20 01:00:55;;;;;;;20.00;9.98;;;8.40;59.30;;;;;;5018809;28;20233;-69
2022/04/20 01:03:24;;;;;;;40.27;18.93;;;8.40;59.40;;;;;;5014822;28;20958;-66
2022/04/20 01:06:18;;;;;;;52.63;24.87;;;8.40;59.50;;;;;;5017781;28;20484;-69
2022/04/20 01:09:06;;;;;;;20.73;11.35;;;8.40;59.60;;;;;;5015753;28;20583;-69
2022/04/20 01:11:42;;;;;;;40.20;18.08;;;8.40;59.50;;;;;;5019644;28;20710;-69
2022/04/20 01:14:29;;;;;;;33.95;16.45;;;8.40;59.50;;;;;;5017370;28;20235;-67
2022/04/20 01:17:15;;;;;;;15.33;7.27;;;8.40;59.60;;;;;;5013404;28;20318;-68
2022/04/20 01:19:58;;;;;;;10.13;5.33;;;8.40;59.60;;;;;;5032598;28;20472;-69
2022/04/20 01:22:47;;;;;;;20.50;10.53;;;8.30;59.60;;;;;;5031115;28;20472;-69
2022/04/20 01:25:41;;;;;;;44.15;17.70;;;8.30;59.60;;;;;;5015512;28;20847;-69
2022/04/20 01:28:19;;;;;;;21.45;9.48;;;8.20;59.80;;;;;;5017343;28;20204;-68
2022/04/20 01:31:18;;;;;;;7.67;4.63;;;8.20;59.80;;;;;;5009070;28;20286;-68
2022/04/20 01:34:09;;;;;;;6.97;4.90;;;8.10;59.90;;;;;;5014759;28;20496;-68
2022/04/20 01:36:37;;;;;;;6.67;4.10;;;8.10;59.80;;;;;;5017900;28;20896;-69
2022/04/20 01:39:06;;;;;;;6.30;3.97;;;8.00;60.10;;;;;;5015056;28;20465;-69
2022/04/20 01:41:34;;;;;;;7.07;4.70;;;7.90;60.10;;;;;;5016066;28;20216;-69
2022/04/20 01:44:02;;;;;;;6.37;4.20;;;7.90;60.20;;;;;;5033648;28;21070;-69
2022/04/20 01:46:41;;;;;;;9.90;4.33;;;7.90;60.20;;;;;;5015626;28;20485;-69
2022/04/20 01:49:20;;;;;;;29.75;14.02;;;7.70;60.40;;;;;;5014836;28;20489;-69
2022/04/20 01:52:14;;;;;;;19.97;8.63;;;7.60;60.30;;;;;;5012687;28;20399;-69
2022/04/20 01:54:58;;;;;;;9.38;5.10;;;7.60;60.60;;;;;;5033340;28;20993;-69
2022/04/20 01:57:49;;;;;;;29.15;14.00;;;7.60;60.80;;;;;;4999783;28;20212;-69
2022/04/20 02:00:21;;;;;;;22.80;12.10;;;7.70;61.00;;;;;;5016141;28;20866;-69
2022/04/20 02:03:17;;;;;;;26.73;14.77;;;7.80;60.90;;;;;;5017898;28;21011;-69
2022/04/20 02:05:50;;;;;;;24.23;12.60;;;7.80;60.80;;;;;;5015421;28;20924;-70
2022/04/20 02:08:24;;;;;;;22.90;13.63;;;7.80;60.70;;;;;;5013112;28;20205;-68
2022/04/20 02:11:17;;;;;;;15.60;8.80;;;7.80;60.80;;;;;;5013606;28;22353;-68
2022/04/20 02:13:46;;;;;;;18.70;9.80;;;7.80;60.90;;;;;;5026304;28;20481;-68
2022/04/20 02:16:16;;;;;;;18.25;9.73;;;7.80;60.90;;;;;;5010251;28;20494;-68
2022/04/20 02:18:47;;;;;;;13.45;5.85;;;7.70;61.00;;;;;;5018876;28;20205;-68
2022/04/20 02:21:35;;;;;;;6.40;3.70;;;7.80;61.10;;;;;;5031652;28;20210;-68
2022/04/20 02:24:04;;;;;;;10.02;4.60;;;7.80;61.10;;;;;;5033573;28;20822;-69
2022/04/20 02:26:34;;;;;;;7.90;4.47;;;7.80;61.20;;;;;;5034292;28;20229;-68
2022/04/20 02:29:02;;;;;;;12.33;7.10;;;7.80;61.10;;;;;;5016002;28;20495;-68
2022/04/20 02:31:30;;;;;;;13.63;8.40;;;7.80;61.20;;;;;;5014954;28;21007;-69
2022/04/20 02:33:58;;;;;;;22.80;12.48;;;7.80;61.20;;;;;;5031686;28;20233;-68
2022/04/20 02:36:26;;;;;;;15.70;7.37;;;7.80;61.10;;;;;;5014366;28;20208;-68
2022/04/20 02:38:54;;;;;;;13.07;6.78;;;7.70;61.20;;;;;;5029086;28;20990;-68
2022/04/20 02:41:23;;;;;;;16.08;8.45;;;7.70;61.30;;;;;;5015107;28;20273;-68
2022/04/20 02:43:52;;;;;;;8.70;5.13;;;7.80;61.40;;;;;;5016629;28;20759;-68
2022/04/20 02:46:22;;;;;;;13.03;7.70;;;7.80;61.30;;;;;;5014048;28;20229;-68
2022/04/20 02:48:51;;;;;;;10.23;5.93;;;7.80;61.20;;;;;;5014411;28;20495;-68
2022/04/20 02:51:19;;;;;;;8.55;4.50;;;7.70;61.20;;;;;;5016949;28;20722;-68
2022/04/20 02:53:47;;;;;;;10.37;4.60;;;7.70;61.30;;;;;;5032523;28;20303;-68
2022/04/20 02:56:16;;;;;;;7.28;4.65;;;7.60;61.30;;;;;;5014784;28;20463;-68
2022/04/20 02:58:47;;;;;;;10.05;4.40;;;7.60;61.30;;;;;;5014360;28;20201;-69
2022/04/20 03:01:16;;;;;;;17.83;9.07;;;7.60;61.40;;;;;;5011891;28;20230;-69
2022/04/20 03:03:46;;;;;;;16.33;8.15;;;7.60;61.50;;;;;;5027816;28;20404;-70
2022/04/20 03:06:33;;;;;;;9.90;5.75;;;7.50;61.50;;;;;;5029129;28;20722;-68
2022/04/20 03:09:07;;;;;;;8.90;5.00;;;7.50;61.50;;;;;;5032176;28;20295;-69
2022/04/20 03:11:40;;;;;;;8.38;4.65;;;7.50;61.50;;;;;;5016263;28;20484;-70
2022/04/20 03:14:08;;;;;;;14.80;7.93;;;7.50;61.60;;;;;;5025456;28;20236;-69
2022/04/20 03:16:39;;;;;;;22.05;10.35;;;7.50;61.60;;;;;;5014795;28;21375;-69
2022/04/20 03:19:11;;;;;;;14.63;7.57;;;7.40;61.70;;;;;;5029535;28;20580;-69
2022/04/20 03:21:39;;;;;;;8.77;4.50;;;7.40;61.80;;;;;;5028677;28;22126;-69
2022/04/20 03:24:07;;;;;;;7.20;5.10;;;7.40;61.90;;;;;;5021584;28;20484;-69
2022/04/20 03:26:51;;;;;;;7.93;4.50;;;7.40;61.80;;;;;;5039123;28;20562;-69
2022/04/20 03:29:41;;;;;;;5.93;3.75;;;7.30;61.90;;;;;;5016605;28;20527;-69
2022/04/20 03:32:12;;;;;;;7.47;4.60;;;7.30;62.00;;;;;;5016469;28;20240;-69
2022/04/20 03:34:42;;;;;;;8.90;4.88;;;7.30;62.10;;;;;;5027844;28;20694;-69
2022/04/20 03:37:13;;;;;;;5.93;4.03;;;7.40;62.10;;;;;;5018771;28;20259;-69
2022/04/20 03:39:42;;;;;;;7.72;4.68;;;7.40;62.10;;;;;;5036108;28;20224;-69
2022/04/20 03:42:10;;;;;;;11.27;5.45;;;7.30;62.00;;;;;;5035607;28;20213;-69
2022/04/20 03:44:39;;;;;;;12.38;4.75;;;7.30;62.10;;;;;;5017300;28;20229;-69
2022/04/20 03:47:09;;;;;;;9.88;5.10;;;7.20;62.10;;;;;;5015798;28;20901;-69
2022/04/20 03:49:37;;;;;;;7.25;5.07;;;7.20;62.10;;;;;;5017398;28;20209;-69
2022/04/20 03:52:07;;;;;;;8.40;5.00;;;7.20;62.10;;;;;;5023576;28;20197;-69
2022/04/20 03:54:36;;;;;;;7.40;5.13;;;7.10;62.10;;;;;;5022324;28;20786;-69
2022/04/20 03:57:07;;;;;;;10.68;4.70;;;7.10;62.30;;;;;;5037172;28;20285;-69
2022/04/20 03:59:42;;;;;;;6.10;4.88;;;7.10;62.40;;;;;;5021991;28;20209;-69
2022/04/20 04:02:13;;;;;;;6.65;4.57;;;7.00;62.30;;;;;;5018853;28;20311;-69
2022/04/20 04:04:48;;;;;;;9.07;5.82;;;7.00;62.40;;;;;;5004221;28;20249;-69
2022/04/20 04:07:26;;;;;;;13.90;5.10;;;7.00;62.60;;;;;;5003094;28;20255;-70
2022/04/20 04:09:54;;;;;;;9.70;5.75;;;7.00;62.50;;;;;;5004421;28;20542;-69
2022/04/20 04:12:23;;;;;;;7.45;5.25;;;7.00;62.60;;;;;;5007483;28;20217;-69
2022/04/20 04:14:54;;;;;;;10.63;5.03;;;7.00;62.60;;;;;;4995547;28;20770;-69
2022/04/20 04:17:23;;;;;;;8.40;4.70;;;7.00;62.60;;;;;;5017846;28;20519;-69
2022/04/20 04:19:51;;;;;;;7.60;4.40;;;7.00;62.70;;;;;;5033159;28;20237;-68
2022/04/20 04:22:19;;;;;;;7.90;5.00;;;7.00;62.70;;;;;;5019571;28;20601;-69
2022/04/20 04:25:08;;;;;;;8.90;5.25;;;7.10;62.70;;;;;;5020466;28;20209;-69
2022/04/20 04:27:36;;;;;;;9.98;5.10;;;7.00;62.70;;;;;;5017749;28;20214;-69
2022/04/20 04:30:05;;;;;;;9.48;4.90;;;7.10;62.80;;;;;;5033929;28;20193;-69
2022/04/20 04:32:41;;;;;;;8.82;5.38;;;7.10;62.80;;;;;;5004318;28;20238;-68
2022/04/20 04:35:09;;;;;;;42.33;22.23;;;7.10;62.90;;;;;;5001214;28;20914;-69
2022/04/20 04:37:39;;;;;;;12.07;7.82;;;7.10;62.90;;;;;;5003792;28;20193;-69
2022/04/20 04:40:10;;;;;;;13.02;6.10;;;7.10;62.90;;;;;;5014626;28;20249;-68
2022/04/20 04:42:38;;;;;;;6.55;4.47;;;7.10;62.80;;;;;;5014460;28;20716;-69
2022/04/20 04:50:44;;;;;;;14.40;5.60;;;7.10;63.00;;;;;;5000625;28;20238;-68
2022/04/20 04:53:12;;;;;;;11.55;5.75;;;7.10;62.90;;;;;;4998607;28;20226;-69
2022/04/20 04:55:40;;;;;;;9.73;5.57;;;7.10;63.00;;;;;;5000399;28;20206;-69
2022/04/20 04:58:08;;;;;;;11.07;5.53;;;7.10;62.90;;;;;;5014028;28;20286;-69
2022/04/20 05:00:36;;;;;;;10.27;6.90;;;7.20;63.60;;;;;;5001519;28;20700;-69
2022/04/20 05:03:27;;;;;;;8.13;5.13;;;7.60;64.50;;;;;;5014162;28;20236;-69
2022/04/20 05:05:55;;;;;;;7.53;4.77;;;8.60;64.80;;;;;;4997380;28;20206;-69
2022/04/20 05:08:42;;;;;;;8.67;6.30;;;9.60;64.00;;;;;;4997420;28;20471;-69
2022/04/20 05:11:11;;;;;;;14.87;8.27;;;10.80;62.90;;;;;;5004499;28;20460;-69
2022/04/20 05:13:40;;;;;;;10.20;6.90;;;11.80;61.70;;;;;;4996840;28;20483;-69
2022/04/20 05:16:08;;;;;;;11.40;7.03;;;12.70;60.70;;;;;;5012463;28;20568;-69
2022/04/20 05:18:38;;;;;;;8.87;5.40;;;13.60;59.50;;;;;;4997080;28;20797;-70
2022/04/20 05:21:07;;;;;;;8.30;4.90;;;14.40;58.60;;;;;;4996257;28;20464;-69
2022/04/20 05:23:35;;;;;;;7.20;4.20;;;15.20;57.70;;;;;;4992593;28;20503;-68
2022/04/20 05:26:03;;;;;;;8.63;4.20;;;15.80;56.40;;;;;;5003734;28;20497;-69
2022/04/20 05:28:34;;;;;;;6.80;4.40;;;16.20;55.40;;;;;;4996898;28;20478;-70
2022/04/20 05:31:04;;;;;;;8.00;4.80;;;16.60;54.80;;;;;;4999904;28;20477;-69
2022/04/20 05:33:34;;;;;;;10.40;5.53;;;17.10;54.50;;;;;;4998491;28;20548;-69
2022/04/20 05:36:04;;;;;;;6.40;4.63;;;17.70;53.80;;;;;;4998404;28;20462;-69
2022/04/20 05:44:10;;;;;;;8.43;4.53;;;19.50;49.80;;;;;;4999667;28;20607;-70
2022/04/20 05:46:39;;;;;;;6.77;4.00;;;19.70;48.80;;;;;;5026735;28;20569;-69
2022/04/20 05:49:14;;;;;;;11.60;5.23;;;19.30;47.30;;;;;;5029355;28;20563;-69
2022/04/20 05:51:45;;;;;;;8.57;4.83;;;17.70;47.00;;;;;;5026284;28;20470;-71
2022/04/20 05:54:13;;;;;;;11.93;4.63;;;16.20;47.70;;;;;;5009086;28;20504;-70
2022/04/20 05:56:43;;;;;;;8.23;4.97;;;14.80;48.30;;;;;;5010464;28;20495;-71
2022/04/20 05:59:12;;;;;;;10.43;4.67;;;13.60;49.50;;;;;;5017231;28;20491;-69
2022/04/20 06:01:42;;;;;;;14.03;4.87;;;12.70;50.30;;;;;;5013894;28;20491;-69
2022/04/20 06:04:19;;;;;;;9.17;4.90;;;12.00;51.10;;;;;;5028585;28;20582;-69
2022/04/20 06:07:05;;;;;;;15.80;5.30;;;11.30;51.90;;;;;;5016586;28;20452;-69
2022/04/20 06:09:37;;;;;;;11.43;5.50;;;10.80;52.70;;;;;;5032158;28;20471;-70
2022/04/20 06:12:14;;;;;;;13.23;5.13;;;10.40;53.30;;;;;;5017943;28;20551;-69
2022/04/20 06:15:09;;;;;;;11.63;5.07;;;10.10;54.20;;;;;;5021716;28;20909;-69
2022/04/20 06:17:49;;;;;;;8.90;4.50;;;9.80;54.50;;;;;;5019288;28;20993;-68
2022/04/20 06:20:17;;;;;;;10.73;4.83;;;9.60;55.00;;;;;;5015408;28;21003;-69
2022/04/20 06:22:56;;;;;;;8.73;5.20;;;9.40;55.60;;;;;;5015629;28;20449;-69
2022/04/20 06:25:54;;;;;;;11.40;6.20;;;9.30;56.00;;;;;;5010991;28;20581;-69
2022/04/20 06:28:42;;;;;;;9.40;5.50;;;9.20;56.50;;;;;;5016832;28;20545;-69
2022/04/20 06:31:35;;;;;;;9.30;4.70;;;9.20;56.70;;;;;;5009547;28;20503;-69
2022/04/20 06:34:17;;;;;;;12.50;6.00;;;9.20;57.10;;;;;;5028930;28;20502;-70
2022/04/20 06:37:08;;;;;;;12.17;5.30;;;9.20;57.40;;;;;;5003943;28;20661;-70
2022/04/20 06:39:56;;;;;;;9.60;4.60;;;9.20;57.60;;;;;;5013894;28;20471;-71
2022/04/20 06:42:47;;;;;;;8.33;4.73;;;9.20;58.00;;;;;;5010349;28;20474;-70
2022/04/20 06:45:48;;;;;;;8.50;5.17;;;9.20;58.40;;;;;;4996387;28;20565;-70
2022/04/20 06:48:35;;;;;;;8.10;4.97;;;9.20;58.30;;;;;;5020336;28;20483;-70
2022/04/20 06:51:14;;;;;;;11.70;5.53;;;9.20;58.70;;;;;;5029634;28;20468;-71
2022/04/20 06:59:29;;;;;;;9.87;5.20;;;9.40;59.20;;;;;;5016109;28;20571;-71
2022/04/20 07:02:18;;;;;;;7.53;5.00;;;9.40;59.20;;;;;;5035545;28;20530;-70
2022/04/20 07:05:13;;;;;;;8.20;5.27;;;9.50;59.50;;;;;;5029330;28;20500;-71
2022/04/20 07:08:00;;;;;;;7.83;5.57;;;9.50;59.50;;;;;;5015718;28;20466;-71
2022/04/20 07:10:44;;;;;;;9.83;5.30;;;9.60;59.70;;;;;;5016003;28;20837;-71
2022/04/20 07:13:17;;;;;;;8.37;5.00;;;9.60;59.60;;;;;;5032058;28;20537;-71
2022/04/20 07:15:45;;;;;;;9.70;4.93;;;9.70;59.70;;;;;;5027369;28;20928;-69
2022/04/20 07:18:14;;;;;;;9.77;5.83;;;9.70;59.90;;;;;;5029323;28;20523;-69
2022/04/20 07:21:03;;;;;;;9.33;5.57;;;9.70;59.80;;;;;;5028941;28;21168;-71
2022/04/20 07:24:07;;;;;;;9.17;4.70;;;9.80;60.00;;;;;;4973279;28;20481;-71
2022/04/20 07:26:58;;;;;;;8.80;5.10;;;9.90;60.00;;;;;;4980955;28;20522;-72
2022/04/20 07:29:41;;;;;;;10.53;6.50;;;9.90;60.00;;;;;;5015142;28;20507;-71
2022/04/20 07:32:24;;;;;;;18.67;12.10;;;10.00;60.20;;;;;;5030252;28;20517;-71
2022/04/20 07:35:10;;;;;;;9.73;5.80;;;10.00;60.40;;;;;;5031426;28;20447;-71
2022/04/20 07:37:57;;;;;;;12.27;8.30;;;10.10;60.20;;;;;;5015987;28;20486;-71
2022/04/20 07:40:44;;;;;;;8.00;5.20;;;10.10;60.20;;;;;;5015758;28;20459;-72
2022/04/20 07:43:32;;;;;;;9.07;5.23;;;10.20;60.20;;;;;;5033602;28;20484;-72
2022/04/20 07:46:16;;;;;;;14.63;8.77;;;10.20;60.40;;;;;;5033564;28;20473;-71
2022/04/20 07:48:56;;;;;;;9.73;5.73;;;10.20;60.40;;;;;;5026117;28;20487;-71
2022/04/20 07:51:32;;;;;;;8.60;5.50;;;10.30;60.30;;;;;;5014178;28;20475;-72
2022/04/20 07:54:20;;;;;;;18.33;6.93;;;10.30;60.30;;;;;;5016069;28;21059;-70
2022/04/20 07:57:18;;;;;;;7.97;4.83;;;10.40;60.20;;;;;;5016848;28;20462;-70
2022/04/20 08:00:10;;;;;;;13.87;8.07;;;10.40;60.00;;;;;;5014475;28;20579;-71
2022/04/20 08:02:44;;;;;;;7.73;4.43;;;10.40;60.10;;;;;;5012540;28;20565;-71
2022/04/20 08:05:22;;;;;;;7.43;5.00;;;10.50;60.00;;;;;;5010670;28;20988;-71
2022/04/20 08:07:51;;;;;;;8.13;5.57;;;10.50;60.00;;;;;;5016928;28;20473;-72
2022/04/20 08:10:19;;;;;;;10.33;6.27;;;10.60;60.00;;;;;;5016444;28;21076;-70
2022/04/20 08:12:47;;;;;;;8.67;4.80;;;10.70;59.80;;;;;;5031779;28;20449;-71
2022/04/20 08:15:23;;;;;;;9.80;5.70;;;10.70;59.60;;;;;;4996083;28;20473;-71
2022/04/20 08:17:54;;;;;;;9.43;5.60;;;10.70;59.50;;;;;;4983684;28;20474;-73
2022/04/20 08:20:45;;;;;;;11.83;5.77;;;10.80;59.30;;;;;;4980359;28;20516;-71
2022/04/20 08:23:13;;;;;;;9.40;5.80;;;10.80;59.00;;;;;;4979591;28;20569;-70
2022/04/20 08:25:41;;;;;;;14.00;5.27;;;10.80;58.90;;;;;;4976649;28;21016;-69
2022/04/20 08:28:11;;;;;;;9.47;6.00;;;10.80;58.70;;;;;;4979079;28;20570;-72
2022/04/20 08:30:40;;;;;;;8.70;5.93;;;10.90;58.90;;;;;;4984596;28;20547;-71
2022/04/20 08:33:09;;;;;;;11.43;7.70;;;10.90;58.90;;;;;;4978340;28;20494;-72
2022/04/20 08:35:38;;;;;;;9.00;6.23;;;11.00;58.70;;;;;;4974375;28;20465;-71
2022/04/20 08:38:06;;;;;;;10.93;6.20;;;11.00;58.40;;;;;;4983529;28;20575;-71
2022/04/20 08:40:35;;;;;;;14.63;6.80;;;11.10;58.10;;;;;;4977309;28;20512;-71
2022/04/20 08:43:05;;;;;;;8.60;5.73;;;11.10;58.10;;;;;;4983577;28;20485;-71
2022/04/20 08:45:37;;;;;;;8.40;5.37;;;11.20;58.10;;;;;;4980788;28;20469;-71
2022/04/20 08:48:06;;;;;;;8.57;5.80;;;11.20;57.40;;;;;;4979461;28;20581;-71
2022/04/20 08:50:37;;;;;;;9.10;5.60;;;11.30;57.60;;;;;;4980526;28;20478;-71
2022/04/20 08:53:05;;;;;;;9.00;5.30;;;11.30;57.50;;;;;;4973834;28;20498;-71
2022/04/20 08:55:33;;;;;;;15.57;7.23;;;11.40;57.30;;;;;;4983000;28;20466;-71
2022/04/20 08:58:04;;;;;;;12.67;6.27;;;11.40;56.70;;;;;;4982748;28;20466;-71
2022/04/20 09:00:32;;;;;;;10.10;5.50;;;11.50;56.80;;;;;;4976181;28;20469;-71
2022/04/20 09:03:03;;;;;;;9.70;5.30;;;11.50;56.20;;;;;;4977910;28;20466;-71
2022/04/20 09:05:34;;;;;;;8.77;5.27;;;11.50;56.10;;;;;;4978435;28;20488;-71
2022/04/20 09:08:11;;;;;;;8.23;5.63;;;11.60;55.50;;;;;;4976445;28;20497;-71
2022/04/20 09:10:39;;;;;;;7.27;5.40;;;11.60;55.30;;;;;;4975359;28;20512;-71
2022/04/20 09:13:09;;;;;;;8.10;5.37;;;11.60;55.40;;;;;;4982595;28;20481;-72
2022/04/20 09:15:38;;;;;;;10.07;6.10;;;11.60;55.00;;;;;;4974002;28;20485;-72
2022/04/20 09:18:07;;;;;;;9.83;5.87;;;11.60;55.10;;;;;;4978474;28;20474;-70
2022/04/20 09:20:35;;;;;;;10.43;6.70;;;11.70;54.70;;;;;;4980506;28;21153;-69
2022/04/20 09:23:07;;;;;;;8.10;5.10;;;11.70;54.30;;;;;;4981682;28;20991;-69
2022/04/20 09:25:47;;;;;;;8.00;5.40;;;11.80;54.70;;;;;;4982381;28;20453;-72
2022/04/20 09:28:15;;;;;;;9.07;5.40;;;11.90;54.30;;;;;;4982553;28;20458;-71
2022/04/20 09:30:43;;;;;;;8.60;5.60;;;11.90;53.30;;;;;;4988938;28;20485;-71
2022/04/20 09:33:13;;;;;;;8.40;5.03;;;11.90;53.70;;;;;;4981045;28;20493;-71
2022/04/20 09:35:43;;;;;;;7.00;4.77;;;12.00;53.00;;;;;;4975448;28;20530;-70
2022/04/20 09:38:13;;;;;;;9.40;6.73;;;12.00;52.90;;;;;;4993892;28;20496;-70
2022/04/20 09:40:46;;;;;;;9.63;6.33;;;12.00;52.80;;;;;;4976859;28;20584;-70
2022/04/20 09:43:16;;;;;;;11.80;6.07;;;12.00;52.80;;;;;;4979985;28;20559;-70
2022/04/20 09:45:44;;;;;;;11.77;6.00;;;12.00;52.90;;;;;;4975828;28;20493;-71
2022/04/20 09:51:20;;;;;;;8.63;4.67;;;12.00;53.00;;;;;;4955536;28;20986;-70
2022/04/20 09:53:50;;;;;;;9.80;5.17;;;12.10;52.90;;;;;;4953820;28;20498;-70
2022/04/20 09:56:22;;;;;;;9.17;5.60;;;12.10;52.30;;;;;;4967617;28;20568;-70
2022/04/20 09:58:59;;;;;;;11.50;5.30;;;12.20;52.00;;;;;;4979126;28;20453;-71
2022/04/20 10:01:31;;;;;;;10.13;6.00;;;12.20;51.70;;;;;;4976121;28;20493;-71
2022/04/20 10:04:01;;;;;;;11.40;5.00;;;12.20;51.40;;;;;;4977458;28;20495;-70
2022/04/20 10:06:29;;;;;;;10.40;5.30;;;12.30;51.70;;;;;;4976600;28;20456;-70
2022/04/20 10:08:58;;;;;;;7.93;5.40;;;12.30;51.20;;;;;;4980180;28;20554;-70
2022/04/20 10:11:28;;;;;;;12.03;7.47;;;12.40;51.10;;;;;;4972721;28;21065;-71
2022/04/20 10:16:48;;;;;;;8.73;4.87;;;12.50;51.00;;;;;;4981365;28;20548;-71
2022/04/20 10:19:22;;;;;;;8.73;5.10;;;12.60;50.50;;;;;;4982181;28;20465;-71
2022/04/20 10:21:53;;;;;;;7.70;5.23;;;12.60;51.00;;;;;;4978067;28;20528;-70
2022/04/20 10:24:25;;;;;;;11.23;5.30;;;12.70;50.50;;;;;;4978401;28;20496;-70
2022/04/20 10:26:57;;;;;;;10.00;5.57;;;12.80;50.10;;;;;;4973951;28;20481;-70
2022/04/20 10:29:31;;;;;;;7.63;4.90;;;12.80;49.40;;;;;;4971794;28;20489;-70
2022/04/20 10:32:04;;;;;;;8.57;5.87;;;12.80;49.40;;;;;;4974753;28;20478;-70
2022/04/20 10:34:33;;;;;;;10.87;5.43;;;12.90;49.40;;;;;;4983000;28;20626;-71
2022/04/20 10:37:25;;;;;;;11.10;5.93;;;12.90;49.20;;;;;;4974929;28;20461;-70
2022/04/20 10:40:15;;;;;;;7.53;4.67;;;12.90;49.20;;;;;;4975468;28;20466;-70
2022/04/20 10:43:20;;;;;;;8.80;5.33;;;13.00;48.90;;;;;;4990062;28;20987;-69
2022/04/20 10:46:14;;;;;;;7.30;5.20;;;13.00;49.10;;;;;;4974044;28;20488;-71
2022/04/20 10:48:44;;;;;;;6.87;5.23;;;13.00;48.70;;;;;;4979694;28;20851;-70
2022/04/20 10:51:14;;;;;;;8.00;5.50;;;13.10;48.70;;;;;;4974470;28;20481;-70
2022/04/20 10:53:43;;;;;;;9.03;5.50;;;13.10;48.80;;;;;;4974580;28;20486;-70
2022/04/20 10:56:12;;;;;;;7.97;5.77;;;13.20;49.00;;;;;;4977634;28;20494;-70
2022/04/20 10:58:53;;;;;;;10.40;5.97;;;13.30;48.90;;;;;;4974685;28;20477;-70
2022/04/20 11:01:21;;;;;;;7.27;4.80;;;13.30;48.70;;;;;;4981730;28;20474;-70
2022/04/20 11:04:08;;;;;;;8.70;5.63;;;13.40;48.60;;;;;;4977618;28;20501;-70
2022/04/20 11:07:15;;;;;;;10.80;6.10;;;13.40;48.40;;;;;;4971377;28;20922;-70
2022/04/20 11:10:10;;;;;;;9.87;5.57;;;13.50;48.50;;;;;;4976270;28;20469;-70
2022/04/20 11:19:10;;;;;;;7.30;5.10;;;13.60;47.40;;;;;;4991761;28;20851;-71
2022/04/20 11:22:06;;;;;;;8.77;4.93;;;13.50;47.40;;;;;;4973882;28;20451;-72
2022/04/20 11:24:40;;;;;;;7.50;4.73;;;13.50;46.70;;;;;;4976032;28;20501;-71
2022/04/20 11:27:10;;;;;;;7.40;4.73;;;13.60;47.10;;;;;;4978189;28;20488;-71
2022/04/20 11:29:43;;;;;;;9.40;5.27;;;13.60;46.60;;;;;;4974660;28;20458;-70
2022/04/20 11:32:15;;;;;;;8.17;4.77;;;13.60;46.40;;;;;;4975539;28;20493;-70
2022/04/20 11:35:05;;;;;;;8.00;4.23;;;13.60;46.70;;;;;;4986513;28;20580;-70
2022/04/20 11:37:33;;;;;;;6.33;4.20;;;13.60;46.30;;;;;;4975063;28;20464;-70
2022/04/20 11:40:11;;;;;;;6.57;4.53;;;13.70;46.70;;;;;;4979172;28;20489;-70
2022/04/20 11:42:39;;;;;;;7.30;4.93;;;13.70;46.00;;;;;;4977858;28;20542;-71
2022/04/20 11:45:08;;;;;;;7.80;4.90;;;13.80;45.90;;;;;;4983662;28;20486;-71
2022/04/20 11:47:42;;;;;;;7.83;4.80;;;13.80;46.00;;;;;;4987614;28;20454;-71
2022/04/20 11:50:27;;;;;;;8.03;5.27;;;13.80;45.40;;;;;;4968093;28;20610;-71
2022/04/20 11:52:59;;;;;;;8.67;5.10;;;13.80;45.90;;;;;;4979362;28;20450;-71
2022/04/20 11:55:47;;;;;;;7.70;4.73;;;13.80;45.80;;;;;;4984538;28;20477;-71
2022/04/20 11:58:16;;;;;;;9.00;4.63;;;13.80;45.70;;;;;;4984437;28;20441;-70
2022/04/20 12:00:45;;;;;;;8.00;4.60;;;13.80;45.40;;;;;;4979588;28;20478;-71
2022/04/20 12:03:14;;;;;;;6.20;4.17;;;13.80;45.60;;;;;;4980277;28;20485;-70
2022/04/20 12:05:42;;;;;;;7.83;4.63;;;13.90;45.70;;;;;;4979305;28;20506;-70
2022/04/20 12:08:10;;;;;;;8.40;4.93;;;13.90;45.50;;;;;;4979680;28;20576;-71
2022/04/20 12:10:40;;;;;;;8.43;5.00;;;14.00;45.60;;;;;;4980860;28;20486;-71
2022/04/20 12:13:08;;;;;;;7.03;4.60;;;14.00;45.70;;;;;;4983862;28;20493;-71
2022/04/20 12:15:36;;;;;;;7.23;4.20;;;14.10;45.40;;;;;;4979012;28;20505;-70
2022/04/20 12:18:09;;;;;;;6.43;4.30;;;14.20;45.40;;;;;;4996278;28;20552;-72
2022/04/20 12:20:47;;;;;;;13.43;6.57;;;14.20;44.80;;;;;;4983268;28;20472;-72
2022/04/20 12:23:16;;;;;;;8.50;4.13;;;14.20;44.20;;;;;;4981137;28;20487;-71
2022/04/20 12:25:52;;;;;;;6.40;3.87;;;14.30;44.50;;;;;;4981061;28;21185;-71
2022/04/20 12:28:41;;;;;;;9.43;4.30;;;14.30;44.50;;;;;;4983810;28;20476;-70
2022/04/20 12:31:12;;;;;;;8.33;4.67;;;14.40;44.50;;;;;;4979393;28;20580;-71
2022/04/20 12:33:45;;;;;;;10.57;4.90;;;14.40;44.00;;;;;;4978629;28;20575;-71
2022/04/20 12:36:22;;;;;;;10.20;4.70;;;14.40;44.40;;;;;;4995658;28;20548;-71
2022/04/20 12:38:54;;;;;;;7.43;4.60;;;14.50;44.50;;;;;;4976454;28;20479;-70
2022/04/20 12:41:41;;;;;;;8.30;5.20;;;14.50;44.50;;;;;;4979059;28;20457;-71
2022/04/20 12:44:38;;;;;;;5.67;3.93;;;14.50;44.40;;;;;;4981467;28;20490;-70
2022/04/20 12:47:35;;;;;;;6.73;4.30;;;14.60;44.70;;;;;;4973033;28;20476;-71
2022/04/20 12:50:18;;;;;;;6.93;4.00;;;14.60;44.80;;;;;;4972259;28;20463;-70
2022/04/20 12:52:59;;;;;;;6.20;4.10;;;14.70;44.20;;;;;;4972593;28;20486;-70
2022/04/20 12:55:42;;;;;;;10.23;4.30;;;14.70;44.00;;;;;;4977350;28;20505;-71
2022/04/20 13:03:48;;;;;;;7.47;4.30;;;14.80;43.40;;;;;;4976636;28;21338;-70
2022/04/20 13:06:16;;;;;;;7.33;3.50;;;14.80;43.50;;;;;;4976169;28;20474;-70
2022/04/20 13:08:46;;;;;;;6.00;3.60;;;14.80;43.50;;;;;;4982016;28;20471;-71
2022/04/20 13:11:16;;;;;;;5.77;3.80;;;14.90;43.40;;;;;;4980333;28;20479;-71
2022/04/20 13:14:04;;;;;;;11.20;4.27;;;14.90;43.20;;;;;;4994004;28;20572;-69
2022/04/20 13:16:32;;;;;;;6.57;4.07;;;14.90;43.60;;;;;;4977753;28;20462;-70
2022/04/20 13:19:00;;;;;;;9.53;4.37;;;15.00;43.80;;;;;;4978725;28;20490;-71
2022/04/20 13:21:29;;;;;;;9.20;5.37;;;15.00;43.70;;;;;;4979511;28;20466;-71
2022/04/20 13:23:59;;;;;;;8.13;4.30;;;15.10;43.80;;;;;;4972579;28;20498;-70
2022/04/20 13:29:12;;;;;;;8.90;4.23;;;15.10;43.50;;;;;;4979381;28;20484;-70
2022/04/20 13:31:41;;;;;;;9.97;5.10;;;15.20;43.70;;;;;;4977502;28;20489;-70
2022/04/20 13:34:09;;;;;;;8.50;4.43;;;15.20;43.90;;;;;;4977836;28;20482;-70
2022/04/20 13:36:37;;;;;;;7.00;4.30;;;15.30;43.90;;;;;;4978846;28;20473;-70
2022/04/20 13:39:06;;;;;;;10.20;4.87;;;15.30;44.00;;;;;;4980087;28;20488;-70
2022/04/20 13:41:34;;;;;;;7.70;5.10;;;15.40;44.00;;;;;;4986491;28;20445;-70
2022/04/20 13:44:02;;;;;;;8.43;4.60;;;15.40;44.10;;;;;;4983937;28;21189;-70
2022/04/20 13:46:30;;;;;;;7.10;4.33;;;15.50;44.10;;;;;;4980296;28;20508;-70
2022/04/20 13:48:58;;;;;;;8.00;4.30;;;15.50;44.10;;;;;;4977547;28;20481;-70
2022/04/20 13:51:26;;;;;;;8.77;4.20;;;15.50;44.00;;;;;;4976879;28;20998;-70
2022/04/20 13:53:53;;;;;;;6.13;3.93;;;15.50;43.90;;;;;;4980489;28;20999;-70
2022/04/20 13:56:23;;;;;;;8.20;4.60;;;15.50;44.00;;;;;;4977928;28;21121;-72
2022/04/20 13:58:51;;;;;;;9.00;4.43;;;15.50;44.40;;;;;;4975753;28;21042;-70
2022/04/20 14:01:20;;;;;;;9.00;4.93;;;15.60;44.60;;;;;;4978100;28;20484;-71
2022/04/20 14:03:48;;;;;;;8.03;3.97;;;15.60;44.80;;;;;;4978735;28;20477;-71